Ana Sayfa
METAR-TAF:

METAR-TAF

Havaalanları :

Lemhi County Airport

Salmon, Idaho, Amerika Birleşik Devletleri

Enlem: 45-07N, Boylam: 113-53W, yükseklik: 1233 m

Güncel hava durumu gözlemi

Rapor saat 22:56 UTC de 36 dakika önce yapıldı.
Rüzgar kuzey/kuzeydoğudan 3 kt
Sıcaklık 15°C
Nem 33%
Basınç 1014 hPa
Görüş mesafesi: 16.1 km
10000 ft yükseklikte az bulutlu

METAR: KSMN 212256Z AUTO 03003KT 10SM FEW100 15/M01 A2994 RMK AO2 SLP136 T01501011

Saat: 17:32 (23:32 UTC)

Tahmin

Rapor saat 17:30 UTC de 6 saat ve 2 dakika önce yapıldı.
Ayın 21'si saat 18 UTC'den ayın 22'si saat 18 UTC'ye kadar geçerli Tahmin
Rüzgar değişken yönden 3 kt
Görüş mesafesi: 10 km
5000 ft yükseklikte çok bulutlu
Ayın 22'si saat 1400 UTC'den
Rüzgar kuzeybatıdan 10 kt
Görüş mesafesi: 9.7 km
3500 ft yükseklikte çok bulutlu
hafif yağmur, Pus,

TAF: KSMN 211730Z 2118/2218 VRB03KT P6SM OVC050 FM221400 31010KT 6SM -RA BR OVC035

4.000'den fazla havaalanı için hava durumu gözlemleri ve tahminleri (METAR ve TAF raporları).

Kullanılabilir istasyonlar harita üzerinde sarı ve kırmızı noktalarla gösterilir.

İstasyonun adını görmek için fareyi noktanın üzerinde gezdirin.

Sonrasında hava gözlem ve tahminlerini görmek için tıklayın.

Haritayı değiştirmek için: yaklaştırmak için siyah artı işaretli yeşil düğmeye ve uzaklaştırmak için de eksi işaretli düğmeye hızla tıklayın; bitişik haritalar için yeşil okları kullanın.


METAR-TAF: